KBOI/BOI METAR and TAF weather

Enter ICAO airport designator
Station Type Date Time Source
KBOI METAR 2020/07/11 19:53 UTC NOAA

KBOI 111953Z VRB03KT 10SM CLR 34/03 A3004 RMK AO2 SLP139 T03440028


Station Type Date Time Source
KBOI Decoded METAR 2020/07/11 19:53 UTC NOAA

BOISE AIR TERMINAL, ID, United States (KBOI) 43-34N 116-14W 875M
Jul 11, 2020 - 03:53 PM EDT / 2020.07.11 1953 UTC
Wind: Variable at 3 MPH (3 KT):0
Visibility: 10 mile(s):0
Sky conditions: clear
Temperature: 93.9 F (34.4 C)
Dew Point: 37.0 F (2.8 C)
Relative Humidity: 13%
Pressure (altimeter): 30.04 in. Hg (1017 hPa)
ob: KBOI 111953Z VRB03KT 10SM CLR 34/03 A3004 RMK AO2 SLP139 T03440028
cycle: 20

Station Type Date Time Source
KBOI TAF 2020/07/11 18:24 UTC NOAA

TAF KBOI 111723Z 1118/1218 12010KT P6SM SKC
FM112100 32010KT P6SM SKC
FM120300 VRB05KT P6SM SKC
FM121500 31010KT P6SM SKC

Example: see airport list